createdAt,value
2023-10-19T00:01:29.516Z,8.60
2023-10-19T00:04:00.262Z,7.40
2023-10-19T00:06:27.041Z,5.70
2023-10-19T00:08:54.258Z,6.78
2023-10-19T00:11:25.522Z,4.80
2023-10-19T00:13:52.461Z,4.88
2023-10-19T00:16:23.598Z,4.05
2023-10-19T00:18:50.552Z,3.75
2023-10-19T00:21:27.174Z,5.10
2023-10-19T00:23:58.716Z,2.97
2023-10-19T00:26:26.544Z,3.15
2023-10-19T00:29:13.617Z,4.05
2023-10-19T00:31:42.142Z,4.63
2023-10-19T00:34:09.050Z,4.47
2023-10-19T00:36:36.017Z,4.00
2023-10-19T00:39:14.845Z,4.68
2023-10-19T00:41:42.117Z,3.78
2023-10-19T00:44:12.185Z,2.75
2023-10-19T00:46:42.365Z,4.05
2023-10-19T00:49:10.780Z,5.03
2023-10-19T00:51:38.534Z,5.57
2023-10-19T00:54:12.319Z,5.40
2023-10-19T00:56:42.621Z,7.25
2023-10-19T00:59:15.176Z,7.93
2023-10-19T01:02:05.979Z,7.10
2023-10-19T01:04:35.942Z,6.22
2023-10-19T01:07:05.631Z,6.97
2023-10-19T01:09:36.475Z,3.50
2023-10-19T01:12:24.870Z,7.72
2023-10-19T01:15:16.006Z,3.83
2023-10-19T01:17:54.474Z,4.15
2023-10-19T01:20:31.666Z,2.42
2023-10-19T01:23:12.385Z,3.53
2023-10-19T01:25:57.693Z,2.90
2023-10-19T01:28:41.785Z,8.18
2023-10-19T01:31:18.736Z,4.57
2023-10-19T01:33:45.639Z,5.57
2023-10-19T01:36:13.359Z,5.05
2023-10-19T01:38:40.354Z,6.78
2023-10-19T01:41:14.542Z,4.50
2023-10-19T01:43:43.629Z,3.88
2023-10-19T01:46:14.068Z,6.55
2023-10-19T01:48:44.728Z,6.40
2023-10-19T01:51:12.341Z,4.97
2023-10-19T01:53:44.311Z,7.60
2023-10-19T01:56:17.922Z,4.65
2023-10-19T01:58:48.119Z,4.18
2023-10-19T02:01:16.114Z,1.75
2023-10-19T02:03:43.444Z,3.30
2023-10-19T02:06:27.531Z,4.95
2023-10-19T02:09:24.453Z,3.05
2023-10-19T02:11:54.221Z,3.63
2023-10-19T02:14:21.156Z,2.67
2023-10-19T02:16:57.964Z,4.05
2023-10-19T02:19:26.156Z,4.28
2023-10-19T02:21:57.522Z,2.03
2023-10-19T02:24:24.308Z,9.15
2023-10-19T02:26:55.630Z,2.40
2023-10-19T02:29:27.258Z,5.57
2023-10-19T02:31:58.146Z,2.33
2023-10-19T02:34:25.613Z,2.60
2023-10-19T02:36:52.449Z,3.03
2023-10-19T02:39:19.244Z,2.67
2023-10-19T02:41:49.224Z,4.05
2023-10-19T02:44:20.047Z,6.32
2023-10-19T02:46:47.448Z,2.50
2023-10-19T02:49:15.198Z,8.15
2023-10-19T02:51:45.798Z,4.85
2023-10-19T02:54:31.378Z,10.75
2023-10-19T02:56:59.728Z,9.85
2023-10-19T02:59:29.504Z,10.57
2023-10-19T03:02:18.681Z,11.18
2023-10-19T03:04:47.453Z,13.23
2023-10-19T03:09:49.930Z,13.23
2023-10-19T03:12:18.242Z,8.48
2023-10-19T03:14:47.656Z,11.68
2023-10-19T03:17:14.686Z,16.70
2023-10-19T03:19:41.564Z,10.32
2023-10-19T03:22:09.095Z,7.93
2023-10-19T03:24:45.212Z,6.78
2023-10-19T03:27:24.857Z,5.35
2023-10-19T03:30:15.257Z,6.28
2023-10-19T03:32:41.994Z,3.28
2023-10-19T03:35:09.207Z,14.55
2023-10-19T03:37:36.593Z,7.13
2023-10-19T03:40:08.901Z,9.40
2023-10-19T03:42:41.624Z,15.35
2023-10-19T03:45:14.441Z,17.55
2023-10-19T03:47:44.798Z,12.48
2023-10-19T03:50:21.919Z,10.00
2023-10-19T03:52:48.747Z,13.32
2023-10-19T03:55:24.835Z,11.35
2023-10-19T03:57:53.513Z,7.65
2023-10-19T04:00:20.667Z,15.20
2023-10-19T04:02:48.233Z,12.43
2023-10-19T04:05:21.916Z,14.15
2023-10-19T04:07:51.708Z,9.35
2023-10-19T04:10:36.808Z,9.27
2023-10-19T04:13:04.129Z,10.82
2023-10-19T04:15:34.831Z,13.77
2023-10-19T04:18:01.734Z,46.22
2023-10-19T04:20:37.221Z,43.20
2023-10-19T04:23:17.041Z,39.92
2023-10-19T04:25:47.434Z,37.40
2023-10-19T04:28:21.658Z,28.70
2023-10-19T04:30:49.820Z,21.05
2023-10-19T04:33:18.466Z,9.73
2023-10-19T04:35:45.399Z,12.00
2023-10-19T04:38:12.097Z,9.82
2023-10-19T04:40:38.927Z,9.52
2023-10-19T04:43:06.720Z,51.38
2023-10-19T04:45:33.643Z,39.80
2023-10-19T04:48:00.412Z,71.07
2023-10-19T04:50:27.178Z,37.83
2023-10-19T04:52:54.218Z,38.97
2023-10-19T04:55:21.045Z,41.00
2023-10-19T04:57:47.934Z,39.33
2023-10-19T05:00:17.889Z,38.08
2023-10-19T05:02:44.699Z,46.40
2023-10-19T05:05:11.806Z,43.35
2023-10-19T05:07:39.383Z,28.40
2023-10-19T05:10:06.936Z,35.22
2023-10-19T05:12:33.690Z,34.28
2023-10-19T05:15:00.443Z,32.17
2023-10-19T05:17:28.589Z,29.77
2023-10-19T05:19:55.698Z,40.05
2023-10-19T05:22:23.209Z,31.98
2023-10-19T05:24:50.053Z,23.38
2023-10-19T05:27:17.476Z,22.15
2023-10-19T05:29:44.680Z,25.75
2023-10-19T05:32:11.564Z,27.13
2023-10-19T05:34:38.561Z,20.58
2023-10-19T05:37:06.923Z,25.45
2023-10-19T05:39:35.103Z,18.40
2023-10-19T05:42:02.531Z,10.55
2023-10-19T05:44:32.626Z,14.35
2023-10-19T05:47:00.140Z,6.70
2023-10-19T05:49:27.735Z,10.02
2023-10-19T05:51:54.585Z,25.05
2023-10-19T05:54:24.582Z,27.05
2023-10-19T05:56:51.881Z,30.73
2023-10-19T05:59:18.634Z,23.27
2023-10-19T06:01:48.396Z,25.30
2023-10-19T06:04:16.717Z,21.23
2023-10-19T06:06:44.863Z,25.17
2023-10-19T06:09:11.548Z,23.73
2023-10-19T06:11:44.092Z,30.20
2023-10-19T06:14:11.138Z,20.15
2023-10-19T06:16:37.988Z,15.35
2023-10-19T06:19:05.480Z,16.48
2023-10-19T06:21:34.062Z,16.30
2023-10-19T06:26:27.416Z,13.52
2023-10-19T06:28:59.972Z,14.02
2023-10-19T06:31:27.361Z,22.10
2023-10-19T06:33:54.276Z,25.50
2023-10-19T06:36:21.099Z,19.42
2023-10-19T06:38:47.921Z,28.98
2023-10-19T06:41:15.309Z,23.85
2023-10-19T06:43:42.273Z,13.70
2023-10-19T06:46:13.260Z,18.10
2023-10-19T06:48:40.998Z,13.80
2023-10-19T06:51:08.028Z,14.52
2023-10-19T06:53:35.068Z,10.07
2023-10-19T06:56:02.489Z,16.48
2023-10-19T06:58:29.451Z,11.23
2023-10-19T07:01:01.241Z,11.95
2023-10-19T07:03:29.611Z,11.10
2023-10-19T07:05:57.736Z,17.10
2023-10-19T07:13:18.155Z,11.40
2023-10-19T07:15:50.361Z,11.93
2023-10-19T07:18:17.394Z,12.00
2023-10-19T07:20:44.569Z,11.48
2023-10-19T07:23:11.479Z,11.80
2023-10-19T07:25:44.577Z,10.13
2023-10-19T07:28:13.823Z,13.70
2023-10-19T07:30:41.690Z,6.78
2023-10-19T07:33:10.973Z,8.77
2023-10-19T07:35:43.708Z,8.07
2023-10-19T07:38:11.186Z,9.63
2023-10-19T07:40:37.951Z,10.57
2023-10-19T07:43:09.640Z,9.15
2023-10-19T07:45:37.802Z,13.05
2023-10-19T07:48:08.130Z,10.50
2023-10-19T07:50:35.718Z,13.77
2023-10-19T07:53:02.735Z,8.95
2023-10-19T07:55:30.119Z,9.52
2023-10-19T07:57:58.407Z,9.15
2023-10-19T08:00:25.165Z,8.70
2023-10-19T08:02:52.845Z,7.25
2023-10-19T08:05:19.802Z,9.43
2023-10-19T08:07:49.975Z,7.78
2023-10-19T08:10:17.844Z,10.25
2023-10-19T08:12:45.927Z,9.75
2023-10-19T08:15:14.218Z,6.82
2023-10-19T08:17:41.785Z,6.22
2023-10-19T08:20:33.040Z,5.80
2023-10-19T08:23:02.895Z,6.40
2023-10-19T08:25:39.899Z,6.43
2023-10-19T08:28:17.093Z,5.43
2023-10-19T08:30:46.283Z,3.50
2023-10-19T08:33:15.319Z,5.93
2023-10-19T08:35:42.208Z,5.93
2023-10-19T08:38:12.895Z,5.18
2023-10-19T08:40:39.991Z,3.88
2023-10-19T08:43:08.947Z,7.28
2023-10-19T08:45:36.111Z,3.40
2023-10-19T08:48:03.667Z,4.57
2023-10-19T08:50:34.989Z,2.30
2023-10-19T08:53:07.588Z,1.95
2023-10-19T08:55:49.493Z,2.53
2023-10-19T08:58:20.777Z,1.88
2023-10-19T09:00:49.934Z,2.25
2023-10-19T09:03:18.899Z,1.88
2023-10-19T09:05:49.075Z,2.72
2023-10-19T09:08:20.879Z,2.70
2023-10-19T09:10:48.776Z,1.92
2023-10-19T09:13:25.843Z,2.00
2023-10-19T09:15:57.279Z,2.67
2023-10-19T09:18:25.896Z,1.90
2023-10-19T09:21:09.369Z,2.90
2023-10-19T09:23:37.726Z,2.25
2023-10-19T09:26:05.252Z,3.22
2023-10-19T09:28:35.221Z,1.73
2023-10-19T09:31:02.653Z,1.70
2023-10-19T09:33:30.443Z,1.85
2023-10-19T09:36:02.033Z,1.88
2023-10-19T09:38:28.833Z,2.05
2023-10-19T09:40:56.458Z,1.63
2023-10-19T09:43:37.003Z,3.67
2023-10-19T09:46:07.574Z,2.13
2023-10-19T09:48:36.894Z,2.17
2023-10-19T09:51:04.524Z,3.50
2023-10-19T09:53:31.272Z,2.10
2023-10-19T09:55:59.854Z,2.60
2023-10-19T09:58:30.919Z,2.13
2023-10-19T10:01:00.415Z,5.93
2023-10-19T10:03:46.020Z,2.45
2023-10-19T10:06:13.424Z,2.13
2023-10-19T10:08:40.283Z,4.60
2023-10-19T10:11:27.839Z,3.03
2023-10-19T10:13:56.544Z,2.85
2023-10-19T10:16:27.925Z,2.00
2023-10-19T10:19:02.144Z,2.13
2023-10-19T10:21:30.248Z,3.50
2023-10-19T10:26:31.072Z,2.22
2023-10-19T10:29:20.960Z,3.50
2023-10-19T10:31:48.883Z,1.98
2023-10-19T10:34:34.816Z,2.35
2023-10-19T10:37:04.014Z,3.78
2023-10-19T10:39:35.293Z,4.30
2023-10-19T10:42:06.154Z,4.40
2023-10-19T10:44:44.005Z,2.55
2023-10-19T10:47:12.368Z,2.97
2023-10-19T10:49:51.263Z,3.00
2023-10-19T10:52:34.839Z,7.20
2023-10-19T10:55:14.935Z,3.50
2023-10-19T10:57:42.500Z,4.57
2023-10-19T11:00:19.866Z,2.35
2023-10-19T11:02:47.755Z,1.95
2023-10-19T11:05:15.499Z,2.05
2023-10-19T11:08:11.173Z,5.97
2023-10-19T11:10:38.179Z,6.05
2023-10-19T11:13:08.262Z,7.07
2023-10-19T11:15:38.784Z,4.20
2023-10-19T11:18:11.422Z,2.88
2023-10-19T11:20:38.183Z,4.45
2023-10-19T11:23:05.083Z,2.83
2023-10-19T11:25:33.214Z,3.65
2023-10-19T11:28:00.931Z,3.30
2023-10-19T11:30:34.777Z,3.65
2023-10-19T11:33:02.690Z,2.80
2023-10-19T11:35:31.814Z,3.45
2023-10-19T11:38:03.777Z,3.15
2023-10-19T11:40:30.584Z,3.50
2023-10-19T11:43:02.272Z,3.83
2023-10-19T11:45:30.247Z,4.43
2023-10-19T11:47:58.326Z,2.83
2023-10-19T11:52:54.092Z,3.03
2023-10-19T11:55:22.724Z,2.95
2023-10-19T11:57:49.544Z,3.75
2023-10-19T12:00:23.191Z,2.65
2023-10-19T12:02:50.569Z,3.10
2023-10-19T12:05:17.455Z,3.70
2023-10-19T12:07:46.503Z,4.35
2023-10-19T12:10:16.222Z,3.20
2023-10-19T12:12:58.463Z,2.45
2023-10-19T12:15:28.646Z,4.55
2023-10-19T12:17:55.981Z,3.55
2023-10-19T12:20:25.795Z,3.58
2023-10-19T12:22:56.028Z,3.35
2023-10-19T12:25:39.568Z,2.75
2023-10-19T12:28:14.588Z,3.22
2023-10-19T12:30:42.518Z,3.83
2023-10-19T12:33:12.970Z,3.70
2023-10-19T12:35:53.087Z,3.60
2023-10-19T12:38:21.479Z,5.07
2023-10-19T12:40:48.805Z,4.35
2023-10-19T12:43:16.014Z,4.28
2023-10-19T12:45:43.062Z,3.67
2023-10-19T12:48:12.068Z,2.92
2023-10-19T12:50:39.517Z,3.42
2023-10-19T12:53:07.917Z,5.68
2023-10-19T12:55:35.865Z,3.53
2023-10-19T12:58:08.630Z,3.83
2023-10-19T13:00:37.462Z,3.47
2023-10-19T13:03:08.521Z,4.43
2023-10-19T13:05:38.703Z,4.15
2023-10-19T13:08:14.950Z,3.30
2023-10-19T13:10:45.740Z,2.80
2023-10-19T13:13:16.198Z,4.28
2023-10-19T13:15:47.241Z,4.35
2023-10-19T13:18:29.085Z,5.75
2023-10-19T13:20:56.501Z,2.60
2023-10-19T13:23:23.495Z,4.53
2023-10-19T13:25:53.838Z,3.60
2023-10-19T13:28:21.886Z,4.88
2023-10-19T13:30:52.588Z,4.30
2023-10-19T13:33:19.838Z,4.85
2023-10-19T13:35:46.869Z,3.83
2023-10-19T13:38:15.216Z,3.75
2023-10-19T13:40:42.570Z,3.33
2023-10-19T13:43:11.535Z,5.72
2023-10-19T13:45:38.459Z,4.93
2023-10-19T13:48:05.862Z,3.60
2023-10-19T13:50:33.023Z,4.25
2023-10-19T13:53:01.507Z,6.13
2023-10-19T13:55:28.381Z,4.50
2023-10-19T13:57:55.847Z,3.72
2023-10-19T14:00:46.177Z,5.10
2023-10-19T14:03:15.107Z,6.60
2023-10-19T14:05:49.237Z,3.83
2023-10-19T14:08:19.701Z,4.60
2023-10-19T14:10:46.655Z,7.78
2023-10-19T14:13:13.497Z,4.88
2023-10-19T14:15:40.616Z,4.65
2023-10-19T14:18:07.888Z,6.85
2023-10-19T14:20:35.771Z,3.55
2023-10-19T14:23:06.006Z,4.45
2023-10-19T14:25:32.998Z,4.65
2023-10-19T14:28:02.574Z,4.70
2023-10-19T14:30:29.657Z,6.10
2023-10-19T14:35:24.958Z,10.45
2023-10-19T14:37:53.068Z,8.25
2023-10-19T14:40:22.158Z,7.82
2023-10-19T14:42:49.048Z,8.35
2023-10-19T14:45:17.706Z,8.25
2023-10-19T14:47:49.496Z,8.48
2023-10-19T14:50:16.795Z,13.82
2023-10-19T14:52:43.715Z,9.60
2023-10-19T14:55:11.063Z,9.60
2023-10-19T14:57:41.026Z,8.65
2023-10-19T15:00:17.595Z,8.13
2023-10-19T15:02:47.744Z,11.88
2023-10-19T15:05:14.588Z,9.82
2023-10-19T15:07:45.853Z,12.60
2023-10-19T15:10:13.049Z,10.85
2023-10-19T15:12:42.631Z,18.20
2023-10-19T15:15:12.677Z,17.88
2023-10-19T15:17:39.988Z,17.65
2023-10-19T15:20:07.917Z,10.50
2023-10-19T15:22:34.735Z,9.75
2023-10-19T15:25:02.066Z,14.70
2023-10-19T15:27:29.611Z,20.23
2023-10-19T15:29:57.550Z,15.18
2023-10-19T15:32:25.838Z,11.98
2023-10-19T15:37:21.372Z,11.20
2023-10-19T15:39:48.338Z,14.57
2023-10-19T15:42:15.091Z,10.85
2023-10-19T15:44:42.265Z,9.50
2023-10-19T15:47:13.481Z,12.20
2023-10-19T15:50:00.533Z,19.33
2023-10-19T15:52:32.824Z,14.25
2023-10-19T15:54:59.649Z,13.82
2023-10-19T15:57:26.803Z,21.23
2023-10-19T15:59:53.539Z,14.50
2023-10-19T16:02:20.710Z,20.63
2023-10-19T16:04:47.598Z,28.10
2023-10-19T16:07:15.042Z,33.60
2023-10-19T16:09:41.798Z,40.95
2023-10-19T16:12:09.257Z,42.80
2023-10-19T16:14:40.809Z,33.63
2023-10-19T16:17:07.993Z,33.75
2023-10-19T16:19:34.784Z,30.35
2023-10-19T16:22:01.722Z,22.58
2023-10-19T16:24:30.584Z,40.80
2023-10-19T16:26:57.761Z,47.33
2023-10-19T16:29:24.581Z,30.48
2023-10-19T16:31:51.372Z,24.63
2023-10-19T16:34:21.172Z,26.35
2023-10-19T16:36:48.021Z,35.28
2023-10-19T16:39:17.729Z,29.58
2023-10-19T16:41:47.736Z,26.55
2023-10-19T16:44:14.508Z,21.65
2023-10-19T16:46:42.498Z,21.02
2023-10-19T16:49:09.825Z,18.15
2023-10-19T16:51:41.176Z,19.13
2023-10-19T16:54:11.375Z,17.80
2023-10-19T16:56:41.036Z,16.13
2023-10-19T16:59:09.434Z,14.75
2023-10-19T17:01:36.276Z,16.02
2023-10-19T17:04:03.106Z,21.35
2023-10-19T17:06:29.888Z,24.38
2023-10-19T17:08:57.540Z,23.92
2023-10-19T17:11:24.869Z,19.20
2023-10-19T17:13:56.716Z,16.58
2023-10-19T17:16:23.621Z,18.38
2023-10-19T17:18:50.839Z,22.52
2023-10-19T17:21:17.586Z,18.55
2023-10-19T17:23:44.664Z,27.27
2023-10-19T17:26:11.528Z,18.08
2023-10-19T17:28:38.291Z,16.25
2023-10-19T17:31:06.909Z,24.73
2023-10-19T17:33:33.963Z,24.17
2023-10-19T17:36:00.863Z,17.38
2023-10-19T17:38:27.712Z,20.13
2023-10-19T17:40:55.033Z,18.13
2023-10-19T17:43:21.697Z,18.80
2023-10-19T17:45:48.491Z,12.73
2023-10-19T17:48:15.778Z,16.23
2023-10-19T17:50:43.555Z,20.23
2023-10-19T17:53:10.422Z,17.30
2023-10-19T17:55:38.149Z,21.83
2023-10-19T17:58:05.874Z,17.67
2023-10-19T18:00:33.036Z,20.67
2023-10-19T18:03:00.072Z,18.67
2023-10-19T18:05:27.283Z,20.42
2023-10-19T18:07:54.268Z,17.45
2023-10-19T18:10:21.596Z,23.33
2023-10-19T18:12:48.693Z,22.98
2023-10-19T18:15:21.487Z,25.85
2023-10-19T18:17:48.308Z,18.98
2023-10-19T18:20:17.380Z,16.13
2023-10-19T18:22:44.256Z,12.85
2023-10-19T18:25:14.516Z,18.63
2023-10-19T18:27:42.596Z,15.88
2023-10-19T18:30:11.321Z,11.30
2023-10-19T18:32:39.089Z,15.35
2023-10-19T18:35:07.622Z,16.27
2023-10-19T18:37:34.965Z,18.08
2023-10-19T18:40:02.166Z,19.80
2023-10-19T18:42:29.648Z,22.15
2023-10-19T18:44:56.601Z,16.30
2023-10-19T18:47:23.881Z,15.15
2023-10-19T18:49:53.775Z,18.70
2023-10-19T18:52:20.512Z,12.98
2023-10-19T18:54:47.315Z,18.85
2023-10-19T18:57:14.106Z,13.50
2023-10-19T18:59:40.996Z,13.65
2023-10-19T19:02:07.977Z,12.73
2023-10-19T19:04:35.121Z,18.83
2023-10-19T19:07:02.084Z,15.05
2023-10-19T19:09:29.168Z,12.32
2023-10-19T19:11:56.747Z,15.45
2023-10-19T19:14:23.588Z,11.27
2023-10-19T19:16:52.466Z,15.35
2023-10-19T19:19:19.370Z,13.38
2023-10-19T19:21:46.064Z,12.38
2023-10-19T19:24:12.814Z,12.95
2023-10-19T19:26:39.468Z,16.23
2023-10-19T19:29:07.259Z,22.65
2023-10-19T19:31:35.684Z,24.75
2023-10-19T19:34:03.964Z,24.45
2023-10-19T19:36:31.080Z,18.20
2023-10-19T19:38:58.267Z,23.65
2023-10-19T19:41:25.192Z,18.67
2023-10-19T19:43:53.469Z,15.10
2023-10-19T19:46:20.289Z,19.42
2023-10-19T19:48:46.975Z,13.93
2023-10-19T19:51:16.560Z,14.10
2023-10-19T19:53:45.013Z,17.42
2023-10-19T19:56:11.878Z,44.58
2023-10-19T19:58:38.910Z,38.13
2023-10-19T20:01:05.624Z,33.22
2023-10-19T20:03:33.466Z,24.30
2023-10-19T20:06:00.857Z,24.00
2023-10-19T20:08:28.301Z,16.60
2023-10-19T20:10:56.523Z,17.02
2023-10-19T20:13:24.396Z,17.20
2023-10-19T20:15:52.173Z,17.38
2023-10-19T20:18:20.457Z,16.73
2023-10-19T20:20:48.151Z,19.20
2023-10-19T20:23:15.658Z,15.95
2023-10-19T20:25:43.067Z,13.05
2023-10-19T20:28:10.414Z,14.40
2023-10-19T20:30:37.333Z,12.90
2023-10-19T20:33:06.012Z,20.13
2023-10-19T20:35:34.223Z,42.38
2023-10-19T20:38:01.249Z,25.13
2023-10-19T20:40:32.341Z,23.27
2023-10-19T20:42:59.998Z,29.23
2023-10-19T20:45:29.429Z,22.77
2023-10-19T20:47:59.109Z,22.33
2023-10-19T20:50:26.769Z,29.92
2023-10-19T20:52:56.635Z,27.27
2023-10-19T20:55:24.903Z,33.13
2023-10-19T20:57:52.098Z,28.45
2023-10-19T21:00:20.901Z,24.63
2023-10-19T21:02:48.061Z,20.30
2023-10-19T21:05:21.078Z,18.52
2023-10-19T21:07:48.239Z,18.83
2023-10-19T21:10:17.461Z,13.07
2023-10-19T21:12:47.539Z,14.13
2023-10-19T21:15:15.391Z,13.98
2023-10-19T21:17:54.902Z,13.00
2023-10-19T21:20:21.871Z,10.48
2023-10-19T21:22:50.238Z,11.27
2023-10-19T21:25:18.044Z,12.02
2023-10-19T21:27:45.707Z,13.50
2023-10-19T21:30:14.480Z,11.93
2023-10-19T21:32:43.027Z,11.57
2023-10-19T21:35:13.197Z,11.27
2023-10-19T21:37:39.924Z,8.73
2023-10-19T21:40:07.486Z,8.52
2023-10-19T21:42:34.282Z,10.45
2023-10-19T21:45:01.142Z,9.43
2023-10-19T21:47:27.896Z,12.05
2023-10-19T21:49:54.775Z,8.32
2023-10-19T21:52:27.571Z,6.22
2023-10-19T21:54:57.178Z,5.97
2023-10-19T21:57:23.933Z,11.68
2023-10-19T21:59:50.666Z,6.18
2023-10-19T22:02:17.449Z,10.02
2023-10-19T22:04:45.818Z,7.75
2023-10-19T22:07:15.314Z,4.78
2023-10-19T22:09:42.481Z,5.85
2023-10-19T22:12:11.325Z,4.60
2023-10-19T22:14:38.311Z,6.80
2023-10-19T22:17:06.639Z,4.97
2023-10-19T22:19:33.587Z,10.68
2023-10-19T22:22:00.358Z,7.45
2023-10-19T22:24:27.069Z,5.40
2023-10-19T22:26:53.834Z,7.18
2023-10-19T22:29:20.714Z,4.07
2023-10-19T22:31:47.995Z,4.70
2023-10-19T22:34:14.889Z,7.43
2023-10-19T22:36:44.444Z,3.53
2023-10-19T22:39:11.189Z,4.03
2023-10-19T22:41:38.562Z,6.35
2023-10-19T22:44:05.836Z,4.57
2023-10-19T22:46:32.792Z,7.50
2023-10-19T22:48:59.692Z,7.15
2023-10-19T22:51:26.762Z,2.95
2023-10-19T22:53:53.497Z,6.07
2023-10-19T22:56:20.285Z,6.65
2023-10-19T22:58:47.099Z,6.35
2023-10-19T23:01:14.315Z,10.80
2023-10-19T23:03:45.046Z,11.32
2023-10-19T23:06:11.839Z,7.97
2023-10-19T23:08:41.743Z,2.95
2023-10-19T23:11:14.585Z,6.05
2023-10-19T23:13:45.269Z,7.07
2023-10-19T23:16:15.498Z,4.53
2023-10-19T23:18:47.668Z,5.25
2023-10-19T23:21:16.056Z,7.50
2023-10-19T23:23:44.643Z,4.65
2023-10-19T23:26:11.711Z,10.45
2023-10-19T23:28:38.482Z,7.88
2023-10-19T23:31:08.824Z,8.90
2023-10-19T23:33:35.638Z,5.45
2023-10-19T23:36:03.807Z,6.07
2023-10-19T23:38:30.666Z,9.45
2023-10-19T23:40:57.659Z,5.88
2023-10-19T23:43:25.763Z,6.30
2023-10-19T23:45:52.636Z,5.30
2023-10-19T23:48:21.508Z,6.47
2023-10-19T23:50:49.049Z,4.53
2023-10-19T23:53:17.661Z,8.68
2023-10-19T23:58:11.903Z,11.05
